Time;durP1;ratioP1;P1;durP2;ratioP2;P2;SDS_P1;SDS_P2;PMS_P1;PMS_P2;Temp;Humidity;BMP_temperature;BMP_pressure;BME280_temperature;BME280_humidity;BME280_pressure;Samples;Min_cycle;Max_cycle;Signal;HPM_P1;HPM_P2
2023/12/05 00:01:32;;;;;;;20.93;9.40;;;;;;;;;;5019766;28;20041;-59
2023/12/05 00:03:57;;;;;;;19.98;9.15;;;;;;;;;;5019212;28;20044;-60
2023/12/05 00:06:22;;;;;;;21.35;9.48;;;;;;;;;;5023440;28;20025;-60
2023/12/05 00:08:47;;;;;;;19.43;8.57;;;;;;;;;;5021309;28;20389;-57
2023/12/05 00:11:12;;;;;;;19.90;8.65;;;;;;;;;;5022835;28;20022;-59
2023/12/05 00:13:37;;;;;;;19.97;9.70;;;;;;;;;;5028318;28;20032;-60
2023/12/05 00:16:03;;;;;;;21.65;9.23;;;;;;;;;;5029734;28;20021;-57
2023/12/05 00:18:28;;;;;;;20.70;9.03;;;;;;;;;;5025593;28;20030;-59
2023/12/05 00:20:53;;;;;;;21.17;9.82;;;;;;;;;;5028678;28;20463;-59
2023/12/05 00:23:18;;;;;;;21.52;9.52;;;;;;;;;;5029328;28;20057;-59
2023/12/05 00:25:43;;;;;;;18.67;8.60;;;;;;;;;;5023686;28;20582;-61
2023/12/05 00:28:09;;;;;;;20.98;9.93;;;;;;;;;;5024400;28;20496;-59
2023/12/05 00:30:34;;;;;;;21.23;9.48;;;;;;;;;;5023718;28;20592;-57
2023/12/05 00:32:59;;;;;;;22.23;9.95;;;;;;;;;;5020916;28;20079;-59
2023/12/05 00:35:24;;;;;;;22.65;9.32;;;;;;;;;;5027252;28;20038;-58
2023/12/05 00:37:49;;;;;;;22.20;10.33;;;;;;;;;;5022631;28;20486;-58
2023/12/05 00:40:15;;;;;;;21.30;9.27;;;;;;;;;;5024479;28;20026;-58
2023/12/05 00:42:40;;;;;;;21.27;9.57;;;;;;;;;;5020545;28;20032;-58
2023/12/05 00:45:05;;;;;;;21.05;9.25;;;;;;;;;;5031349;28;20422;-59
2023/12/05 00:47:30;;;;;;;22.25;9.73;;;;;;;;;;5030055;28;20022;-59
2023/12/05 00:49:55;;;;;;;21.47;9.43;;;;;;;;;;5023874;28;20033;-58
2023/12/05 00:52:21;;;;;;;19.65;9.23;;;;;;;;;;5022185;28;20148;-59
2023/12/05 00:54:46;;;;;;;21.30;9.70;;;;;;;;;;5025113;28;20133;-58
2023/12/05 00:57:11;;;;;;;22.80;10.05;;;;;;;;;;5022524;28;20037;-58
2023/12/05 00:59:36;;;;;;;21.10;9.63;;;;;;;;;;5030424;28;20049;-58
2023/12/05 01:02:02;;;;;;;19.40;8.88;;;;;;;;;;5021703;28;20101;-59
2023/12/05 01:04:27;;;;;;;21.20;9.65;;;;;;;;;;5022879;28;20029;-58
2023/12/05 01:06:52;;;;;;;21.80;10.23;;;;;;;;;;5021476;28;20010;-58
2023/12/05 01:09:18;;;;;;;21.73;9.37;;;;;;;;;;5026250;28;20049;-58
2023/12/05 01:11:43;;;;;;;22.02;9.57;;;;;;;;;;5021868;28;20081;-58
2023/12/05 01:14:08;;;;;;;20.25;9.50;;;;;;;;;;5028029;28;20029;-59
2023/12/05 01:16:33;;;;;;;20.75;9.40;;;;;;;;;;5022291;28;20493;-58
2023/12/05 01:18:59;;;;;;;20.95;9.52;;;;;;;;;;5019403;28;20083;-59
2023/12/05 01:21:24;;;;;;;19.80;8.97;;;;;;;;;;5028367;28;20048;-59
2023/12/05 01:23:49;;;;;;;20.80;9.85;;;;;;;;;;5020051;28;20025;-59
2023/12/05 01:26:14;;;;;;;22.50;9.68;;;;;;;;;;5018972;28;20030;-60
2023/12/05 01:28:39;;;;;;;21.80;9.73;;;;;;;;;;5025415;28;20787;-59
2023/12/05 01:31:04;;;;;;;21.30;9.65;;;;;;;;;;5025272;28;20087;-59
2023/12/05 01:33:29;;;;;;;22.70;9.97;;;;;;;;;;5016991;28;20022;-59
2023/12/05 01:35:55;;;;;;;25.17;10.30;;;;;;;;;;5021230;28;20030;-59
2023/12/05 01:38:20;;;;;;;19.60;9.65;;;;;;;;;;5016661;28;20042;-57
2023/12/05 01:40:45;;;;;;;21.00;9.63;;;;;;;;;;5027571;28;20014;-58
2023/12/05 01:43:10;;;;;;;21.65;9.93;;;;;;;;;;5022759;28;20029;-59
2023/12/05 01:45:35;;;;;;;22.75;10.25;;;;;;;;;;5030804;28;20469;-57
2023/12/05 01:48:01;;;;;;;19.70;9.07;;;;;;;;;;5019194;28;20022;-59
2023/12/05 01:50:27;;;;;;;22.23;9.48;;;;;;;;;;5026102;28;20056;-58
2023/12/05 01:52:54;;;;;;;23.17;10.23;;;;;;;;;;5014750;28;20021;-59
2023/12/05 01:55:20;;;;;;;22.17;10.05;;;;;;;;;;5018120;28;20017;-59
2023/12/05 01:57:47;;;;;;;21.30;10.43;;;;;;;;;;5028499;28;20540;-59
2023/12/05 02:00:13;;;;;;;22.60;9.55;;;;;;;;;;5030047;28;20049;-59
2023/12/05 02:02:38;;;;;;;22.58;10.40;;;;;;;;;;5023598;28;20022;-59
2023/12/05 02:05:04;;;;;;;21.58;9.60;;;;;;;;;;5016563;28;20095;-59
2023/12/05 02:07:30;;;;;;;20.43;8.90;;;;;;;;;;5021364;28;20366;-59
2023/12/05 02:09:55;;;;;;;20.73;8.90;;;;;;;;;;5016739;28;20021;-57
2023/12/05 02:12:20;;;;;;;21.27;9.40;;;;;;;;;;5024957;28;20104;-59
2023/12/05 02:14:46;;;;;;;21.55;9.25;;;;;;;;;;5022925;28;20025;-58
2023/12/05 02:17:26;;;;;;;20.45;8.50;;;;;;;;;;5023176;28;20100;-59
2023/12/05 02:20:09;;;;;;;20.23;9.07;;;;;;;;;;5030761;28;20108;-59
2023/12/05 02:22:52;;;;;;;20.77;9.13;;;;;;;;;;5028627;28;20032;-59
2023/12/05 02:25:36;;;;;;;19.42;9.23;;;;;;;;;;5020671;28;20022;-58
2023/12/05 02:28:02;;;;;;;19.95;8.80;;;;;;;;;;5026438;28;20025;-59
2023/12/05 02:30:27;;;;;;;19.15;8.82;;;;;;;;;;5021857;28;20091;-58
2023/12/05 02:32:52;;;;;;;19.10;7.77;;;;;;;;;;5019830;28;20014;-59
2023/12/05 02:35:17;;;;;;;18.30;8.40;;;;;;;;;;5030565;28;20029;-58
2023/12/05 02:37:49;;;;;;;20.63;8.90;;;;;;;;;;5019417;28;20497;-58
2023/12/05 02:40:16;;;;;;;18.27;8.63;;;;;;;;;;5022511;28;20034;-58
2023/12/05 02:42:42;;;;;;;28.67;12.32;;;;;;;;;;5024418;28;20021;-59
2023/12/05 02:45:09;;;;;;;19.52;8.85;;;;;;;;;;5026637;28;20041;-59
2023/12/05 02:47:36;;;;;;;19.02;8.07;;;;;;;;;;5027677;28;20026;-60
2023/12/05 02:50:01;;;;;;;17.35;7.53;;;;;;;;;;5027723;28;20064;-59
2023/12/05 02:52:26;;;;;;;19.63;8.70;;;;;;;;;;5021133;28;20056;-59
2023/12/05 02:54:51;;;;;;;19.40;8.60;;;;;;;;;;5025016;28;20072;-59
2023/12/05 02:57:17;;;;;;;20.17;9.37;;;;;;;;;;5026940;28;20018;-59
2023/12/05 02:59:42;;;;;;;17.13;7.93;;;;;;;;;;5020833;28;20025;-59
2023/12/05 03:02:07;;;;;;;19.58;8.27;;;;;;;;;;5018406;28;20026;-59
2023/12/05 03:04:32;;;;;;;18.43;8.13;;;;;;;;;;5023726;28;20014;-58
2023/12/05 03:06:57;;;;;;;20.60;9.90;;;;;;;;;;5020730;28;20104;-58
2023/12/05 03:09:23;;;;;;;20.03;10.07;;;;;;;;;;5027525;28;20028;-58
2023/12/05 03:11:48;;;;;;;17.35;8.25;;;;;;;;;;5018429;28;20394;-58
2023/12/05 03:14:13;;;;;;;19.23;9.20;;;;;;;;;;5020020;28;20057;-58
2023/12/05 03:16:38;;;;;;;18.33;8.40;;;;;;;;;;5020647;28;20030;-59
2023/12/05 03:19:03;;;;;;;19.80;8.40;;;;;;;;;;5021908;28;20027;-59
2023/12/05 03:21:29;;;;;;;19.67;8.83;;;;;;;;;;5025697;28;20025;-59
2023/12/05 03:23:54;;;;;;;18.90;8.45;;;;;;;;;;5021994;28;20056;-58
2023/12/05 03:26:19;;;;;;;18.65;8.82;;;;;;;;;;5020817;28;20075;-59
2023/12/05 03:28:45;;;;;;;19.15;8.60;;;;;;;;;;5022658;28;20022;-58
2023/12/05 03:31:10;;;;;;;17.40;7.87;;;;;;;;;;5023525;28;20030;-58
2023/12/05 03:33:38;;;;;;;19.50;8.77;;;;;;;;;;5018852;28;20624;-58
2023/12/05 03:36:04;;;;;;;18.77;8.52;;;;;;;;;;5022424;28;20100;-58
2023/12/05 03:38:29;;;;;;;17.73;7.95;;;;;;;;;;5019933;28;20472;-59
2023/12/05 03:40:55;;;;;;;18.05;8.40;;;;;;;;;;5024660;28;20022;-58
2023/12/05 03:43:20;;;;;;;18.38;8.57;;;;;;;;;;5020706;28;20065;-59
2023/12/05 03:45:45;;;;;;;17.30;8.63;;;;;;;;;;5021656;28;20101;-58
2023/12/05 03:48:10;;;;;;;19.93;8.80;;;;;;;;;;5030792;28;20033;-58
2023/12/05 03:50:35;;;;;;;19.00;8.63;;;;;;;;;;5024793;28;20048;-59
2023/12/05 03:53:01;;;;;;;18.83;8.13;;;;;;;;;;5026078;28;20025;-58
2023/12/05 03:55:26;;;;;;;19.30;8.30;;;;;;;;;;5029011;28;20076;-58
2023/12/05 03:57:51;;;;;;;17.92;7.75;;;;;;;;;;5025220;28;20042;-58
2023/12/05 04:00:16;;;;;;;20.35;8.55;;;;;;;;;;5031080;28;20030;-58
2023/12/05 04:02:41;;;;;;;18.35;8.30;;;;;;;;;;5017137;28;20095;-58
2023/12/05 04:05:07;;;;;;;17.55;8.35;;;;;;;;;;5025309;28;20034;-58
2023/12/05 04:07:32;;;;;;;20.15;8.55;;;;;;;;;;5024794;28;20029;-58
2023/12/05 04:09:57;;;;;;;19.73;9.00;;;;;;;;;;5020268;28;20482;-58
2023/12/05 04:12:22;;;;;;;18.98;9.20;;;;;;;;;;5027710;28;20400;-58
2023/12/05 04:14:47;;;;;;;16.97;7.77;;;;;;;;;;5028235;28;20048;-58
2023/12/05 04:17:13;;;;;;;20.35;8.70;;;;;;;;;;5030229;28;20022;-58
2023/12/05 04:19:38;;;;;;;20.20;8.65;;;;;;;;;;5025528;28;20079;-59
2023/12/05 04:22:03;;;;;;;18.63;8.67;;;;;;;;;;5030763;28;20473;-59
2023/12/05 04:24:28;;;;;;;16.37;7.87;;;;;;;;;;5029728;28;20058;-58
2023/12/05 04:26:53;;;;;;;18.17;8.20;;;;;;;;;;5024671;28;20025;-57
2023/12/05 04:29:19;;;;;;;18.50;8.20;;;;;;;;;;5027419;28;20045;-58
2023/12/05 04:31:44;;;;;;;20.73;8.93;;;;;;;;;;5027451;28;20478;-58
2023/12/05 04:34:09;;;;;;;19.27;10.07;;;;;;;;;;5022887;28;20029;-58
2023/12/05 04:36:34;;;;;;;17.63;7.75;;;;;;;;;;5020792;28;20103;-58
2023/12/05 04:38:59;;;;;;;19.05;8.43;;;;;;;;;;5025889;28;20022;-57
2023/12/05 04:41:24;;;;;;;18.55;8.00;;;;;;;;;;5019104;28;20010;-58
2023/12/05 04:43:50;;;;;;;21.25;8.73;;;;;;;;;;5022538;28;20032;-58
2023/12/05 04:46:15;;;;;;;21.30;8.57;;;;;;;;;;5023828;28;20030;-57
2023/12/05 04:48:40;;;;;;;18.53;7.87;;;;;;;;;;5027498;28;20030;-58
2023/12/05 04:51:05;;;;;;;20.87;8.53;;;;;;;;;;5022391;28;20556;-57
2023/12/05 04:53:30;;;;;;;19.50;7.97;;;;;;;;;;5021626;28;20032;-58
2023/12/05 04:55:56;;;;;;;20.53;8.50;;;;;;;;;;5031056;28;20022;-58
2023/12/05 04:58:21;;;;;;;20.02;8.70;;;;;;;;;;5026423;28;20033;-58
2023/12/05 05:00:46;;;;;;;22.48;8.20;;;;;;;;;;5035335;28;20029;-58
2023/12/05 05:03:11;;;;;;;18.17;8.10;;;;;;;;;;5033143;28;20050;-60
2023/12/05 05:05:37;;;;;;;19.77;8.85;;;;;;;;;;5038124;28;20026;-60
2023/12/05 05:08:02;;;;;;;21.52;8.95;;;;;;;;;;5028827;28;20492;-57
2023/12/05 05:10:27;;;;;;;19.67;8.50;;;;;;;;;;5031588;28;20033;-59
2023/12/05 05:12:52;;;;;;;19.27;8.25;;;;;;;;;;5019831;28;20030;-59
2023/12/05 05:15:17;;;;;;;19.48;8.35;;;;;;;;;;5020106;28;20029;-59
2023/12/05 05:17:42;;;;;;;20.43;8.60;;;;;;;;;;5020546;28;20049;-58
2023/12/05 05:20:08;;;;;;;24.42;9.55;;;;;;;;;;5024955;28;20080;-59
2023/12/05 05:22:33;;;;;;;20.80;8.55;;;;;;;;;;5024228;28;20021;-58
2023/12/05 05:24:58;;;;;;;19.40;8.73;;;;;;;;;;5025728;28;20049;-59
2023/12/05 05:27:23;;;;;;;17.25;7.95;;;;;;;;;;5022389;28;20468;-59
2023/12/05 05:29:48;;;;;;;19.00;8.43;;;;;;;;;;5024706;28;20100;-59
2023/12/05 05:32:13;;;;;;;19.00;7.80;;;;;;;;;;5022072;28;20045;-59
2023/12/05 05:34:38;;;;;;;21.50;8.63;;;;;;;;;;5013995;28;20056;-59
2023/12/05 05:37:04;;;;;;;20.27;8.43;;;;;;;;;;5021558;28;20101;-59
2023/12/05 05:39:29;;;;;;;19.17;8.60;;;;;;;;;;5017076;28;20031;-59
2023/12/05 05:41:54;;;;;;;22.90;9.97;;;;;;;;;;5022155;28;20034;-59
2023/12/05 05:44:19;;;;;;;18.90;9.30;;;;;;;;;;5018006;28;20462;-58
2023/12/05 05:46:44;;;;;;;20.20;8.80;;;;;;;;;;5024716;28;20083;-59
2023/12/05 05:49:10;;;;;;;18.90;8.47;;;;;;;;;;5022709;28;20049;-59
2023/12/05 05:51:35;;;;;;;20.73;9.10;;;;;;;;;;5022413;28;20464;-59
2023/12/05 05:54:00;;;;;;;21.05;8.77;;;;;;;;;;5024634;28;20041;-59
2023/12/05 05:56:25;;;;;;;21.40;9.35;;;;;;;;;;5025351;28;20030;-59
2023/12/05 05:58:50;;;;;;;19.67;9.07;;;;;;;;;;5018487;28;20064;-59
2023/12/05 06:01:16;;;;;;;20.50;8.63;;;;;;;;;;5020080;28;20017;-58
2023/12/05 06:03:41;;;;;;;20.23;8.77;;;;;;;;;;5024218;28;20075;-59
2023/12/05 06:06:07;;;;;;;18.83;8.97;;;;;;;;;;5026537;28;20029;-59
2023/12/05 06:08:32;;;;;;;19.42;8.98;;;;;;;;;;5023842;28;20041;-59
2023/12/05 06:10:57;;;;;;;24.27;12.87;;;;;;;;;;5008410;28;20022;-59
2023/12/05 06:13:22;;;;;;;17.83;7.90;;;;;;;;;;5018548;28;20808;-58
2023/12/05 06:15:47;;;;;;;17.25;7.80;;;;;;;;;;5025544;28;20091;-58
2023/12/05 06:18:15;;;;;;;17.07;8.03;;;;;;;;;;5022356;28;20030;-59
2023/12/05 06:20:40;;;;;;;18.60;8.20;;;;;;;;;;5020396;28;20021;-59
2023/12/05 06:23:05;;;;;;;20.08;8.55;;;;;;;;;;5028000;28;20039;-60
2023/12/05 06:25:31;;;;;;;17.90;8.20;;;;;;;;;;5028412;28;20374;-59
2023/12/05 06:27:56;;;;;;;16.75;7.65;;;;;;;;;;5029824;28;20067;-59
2023/12/05 06:30:21;;;;;;;19.38;8.18;;;;;;;;;;5027914;28;20037;-60
2023/12/05 06:32:46;;;;;;;16.87;8.13;;;;;;;;;;5028721;28;20476;-58
2023/12/05 06:35:11;;;;;;;18.47;8.50;;;;;;;;;;5027564;28;20025;-59
2023/12/05 06:37:36;;;;;;;17.43;8.20;;;;;;;;;;5027739;28;20557;-58
2023/12/05 06:40:02;;;;;;;18.35;8.30;;;;;;;;;;5023971;28;20049;-58
2023/12/05 06:42:27;;;;;;;19.25;9.30;;;;;;;;;;5018006;28;20452;-59
2023/12/05 06:44:52;;;;;;;18.80;8.80;;;;;;;;;;5017609;28;20052;-59
2023/12/05 06:47:18;;;;;;;16.80;7.83;;;;;;;;;;5020372;28;20113;-59
2023/12/05 06:49:43;;;;;;;19.77;8.60;;;;;;;;;;5017895;28;20029;-59
2023/12/05 06:52:11;;;;;;;18.35;8.68;;;;;;;;;;5027186;28;20035;-59
2023/12/05 06:54:36;;;;;;;19.27;8.27;;;;;;;;;;5022176;28;20490;-59
2023/12/05 06:57:01;;;;;;;19.25;8.60;;;;;;;;;;5019563;28;20097;-60
2023/12/05 06:59:26;;;;;;;20.27;12.03;;;;;;;;;;5029176;28;20680;-59
2023/12/05 07:01:51;;;;;;;20.40;8.32;;;;;;;;;;5018042;28;20029;-60
2023/12/05 07:04:18;;;;;;;18.80;8.32;;;;;;;;;;5028867;28;20044;-60
2023/12/05 07:06:43;;;;;;;19.65;8.98;;;;;;;;;;5024886;28;20102;-59
2023/12/05 07:09:08;;;;;;;18.80;8.38;;;;;;;;;;5019617;28;20545;-59
2023/12/05 07:11:33;;;;;;;17.52;7.75;;;;;;;;;;5021718;28;20064;-59
2023/12/05 07:13:59;;;;;;;18.33;8.17;;;;;;;;;;5023463;28;20024;-59
2023/12/05 07:16:25;;;;;;;18.45;8.50;;;;;;;;;;5025994;28;20547;-62
2023/12/05 07:18:50;;;;;;;17.95;8.50;;;;;;;;;;5025673;28;20061;-59
2023/12/05 07:21:15;;;;;;;19.50;8.27;;;;;;;;;;5024356;28;20461;-59
2023/12/05 07:23:41;;;;;;;21.73;9.40;;;;;;;;;;5029452;28;20088;-59
2023/12/05 07:26:06;;;;;;;18.10;8.25;;;;;;;;;;5032954;28;20056;-59
2023/12/05 07:28:31;;;;;;;18.77;8.40;;;;;;;;;;5028127;28;20033;-59
2023/12/05 07:30:56;;;;;;;17.55;7.88;;;;;;;;;;5021723;28;20522;-59
2023/12/05 07:33:21;;;;;;;18.52;8.63;;;;;;;;;;5024520;28;20022;-60
2023/12/05 07:35:47;;;;;;;19.05;8.65;;;;;;;;;;5018872;28;20087;-59
2023/12/05 07:38:12;;;;;;;17.13;7.83;;;;;;;;;;5021876;28;20034;-59
2023/12/05 07:40:37;;;;;;;17.70;7.95;;;;;;;;;;5019234;28;20083;-59
2023/12/05 07:43:02;;;;;;;19.50;8.38;;;;;;;;;;5018910;28;20101;-59
2023/12/05 07:45:27;;;;;;;18.00;7.90;;;;;;;;;;5023700;28;20389;-60
2023/12/05 07:47:53;;;;;;;18.50;8.73;;;;;;;;;;5023648;28;20014;-59
2023/12/05 07:50:18;;;;;;;19.92;8.30;;;;;;;;;;5020222;28;20033;-59
2023/12/05 07:52:47;;;;;;;15.63;7.43;;;;;;;;;;5027029;28;20128;-59
2023/12/05 07:55:12;;;;;;;16.52;8.23;;;;;;;;;;5020990;28;20029;-59
2023/12/05 07:57:37;;;;;;;17.58;7.95;;;;;;;;;;5029088;28;20032;-59
2023/12/05 08:00:04;;;;;;;16.83;8.13;;;;;;;;;;5024681;28;20044;-59
2023/12/05 08:02:30;;;;;;;19.05;8.57;;;;;;;;;;5017349;28;20505;-59
2023/12/05 08:04:55;;;;;;;19.07;8.27;;;;;;;;;;5029105;28;20028;-59
2023/12/05 08:07:20;;;;;;;21.20;8.82;;;;;;;;;;5020826;28;20034;-59
2023/12/05 08:09:46;;;;;;;19.80;8.75;;;;;;;;;;5021823;28;20032;-60
2023/12/05 08:12:11;;;;;;;19.10;8.35;;;;;;;;;;5015864;28;20081;-59
2023/12/05 08:14:36;;;;;;;19.40;8.77;;;;;;;;;;5022448;28;20025;-59
2023/12/05 08:17:03;;;;;;;19.33;8.35;;;;;;;;;;5026381;28;20025;-58
2023/12/05 08:19:29;;;;;;;18.27;8.55;;;;;;;;;;5016553;28;20053;-59
2023/12/05 08:21:54;;;;;;;19.13;8.73;;;;;;;;;;5025238;28;20025;-59
2023/12/05 08:24:19;;;;;;;20.90;9.20;;;;;;;;;;5024659;28;20041;-59
2023/12/05 08:26:45;;;;;;;17.67;8.73;;;;;;;;;;5023596;28;20064;-59
2023/12/05 08:29:10;;;;;;;20.48;8.88;;;;;;;;;;5009847;28;20348;-58
2023/12/05 08:31:36;;;;;;;20.80;9.15;;;;;;;;;;5010297;28;20049;-59
2023/12/05 08:34:01;;;;;;;23.90;9.13;;;;;;;;;;5021951;28;20014;-59
2023/12/05 08:36:26;;;;;;;19.90;8.95;;;;;;;;;;5023518;28;20338;-60
2023/12/05 08:38:51;;;;;;;22.10;9.75;;;;;;;;;;5022506;28;20481;-61
2023/12/05 08:41:18;;;;;;;21.75;10.30;;;;;;;;;;5026800;28;20377;-59
2023/12/05 08:43:43;;;;;;;19.63;8.57;;;;;;;;;;5017688;28;20480;-58
2023/12/05 08:46:08;;;;;;;19.25;9.73;;;;;;;;;;5023808;28;20116;-58
2023/12/05 08:48:33;;;;;;;21.83;9.95;;;;;;;;;;5031226;28;20021;-59
2023/12/05 08:50:58;;;;;;;19.65;9.57;;;;;;;;;;5024837;28;20021;-59
2023/12/05 08:53:23;;;;;;;20.92;9.57;;;;;;;;;;5023222;28;20100;-59
2023/12/05 08:55:48;;;;;;;21.30;9.80;;;;;;;;;;5019865;28;20040;-58
2023/12/05 08:58:14;;;;;;;21.95;9.90;;;;;;;;;;5030613;28;20455;-58
2023/12/05 09:00:39;;;;;;;23.70;10.03;;;;;;;;;;5021897;28;20396;-59
2023/12/05 09:03:04;;;;;;;21.92;9.60;;;;;;;;;;5026023;28;20114;-58
2023/12/05 09:05:29;;;;;;;21.35;10.13;;;;;;;;;;5031529;28;20110;-59
2023/12/05 09:07:54;;;;;;;20.55;9.45;;;;;;;;;;5031249;28;20020;-58
2023/12/05 09:10:19;;;;;;;18.75;9.88;;;;;;;;;;5030957;28;20515;-58
2023/12/05 09:12:44;;;;;;;18.60;8.80;;;;;;;;;;5023301;28;20862;-59
2023/12/05 09:15:10;;;;;;;18.85;9.15;;;;;;;;;;5029603;28;20472;-59
2023/12/05 09:17:35;;;;;;;21.33;9.30;;;;;;;;;;5029968;28;20108;-59
2023/12/05 09:20:00;;;;;;;21.73;9.10;;;;;;;;;;5031453;28;20029;-58
2023/12/05 09:22:25;;;;;;;19.10;8.53;;;;;;;;;;5027562;28;20481;-59
2023/12/05 09:24:51;;;;;;;21.65;9.63;;;;;;;;;;5018815;28;20043;-59
2023/12/05 09:27:16;;;;;;;21.60;9.25;;;;;;;;;;5019967;28;20490;-59
2023/12/05 09:29:41;;;;;;;19.60;9.80;;;;;;;;;;5027709;28;20099;-59
2023/12/05 09:32:06;;;;;;;17.77;8.82;;;;;;;;;;5030103;28;20037;-59
2023/12/05 09:34:31;;;;;;;20.57;9.67;;;;;;;;;;5020516;28;20038;-60
2023/12/05 09:36:56;;;;;;;20.63;9.23;;;;;;;;;;5021324;28;20026;-59
2023/12/05 09:39:22;;;;;;;22.23;9.50;;;;;;;;;;5020825;28;20105;-59
2023/12/05 09:41:50;;;;;;;20.95;10.00;;;;;;;;;;5023606;28;20485;-59
2023/12/05 09:44:16;;;;;;;18.42;8.60;;;;;;;;;;5032733;28;20501;-59
2023/12/05 09:46:46;;;;;;;19.92;10.68;;;;;;;;;;5030149;28;20013;-59
2023/12/05 09:49:12;;;;;;;21.50;10.02;;;;;;;;;;5038988;28;20108;-59
2023/12/05 09:51:37;;;;;;;23.05;10.35;;;;;;;;;;5035775;28;20535;-59
2023/12/05 09:54:03;;;;;;;25.50;10.13;;;;;;;;;;5021996;28;20033;-59
2023/12/05 09:56:28;;;;;;;23.00;10.25;;;;;;;;;;5028402;28;20029;-59
2023/12/05 09:58:53;;;;;;;22.37;9.67;;;;;;;;;;5020907;28;20021;-59
2023/12/05 10:01:19;;;;;;;25.05;10.82;;;;;;;;;;5023214;28;20120;-59
2023/12/05 10:03:45;;;;;;;22.08;10.27;;;;;;;;;;5023369;28;20108;-58
2023/12/05 10:06:10;;;;;;;21.80;10.40;;;;;;;;;;5026168;28;20542;-57
2023/12/05 10:08:37;;;;;;;23.58;10.10;;;;;;;;;;5021602;28;20033;-59
2023/12/05 10:11:04;;;;;;;21.38;10.02;;;;;;;;;;5015831;28;20028;-59
2023/12/05 10:13:30;;;;;;;;;;;;;;;;;;5025252;28;20064;-59
2023/12/05 10:15:55;;;;;;;23.60;10.25;;;;;;;;;;5013983;28;19920;-57
2023/12/05 10:18:21;;;;;;;22.80;10.57;;;;;;;;;;5026533;28;20041;-57
2023/12/05 10:20:46;;;;;;;23.90;10.75;;;;;;;;;;5027851;28;20032;-59
2023/12/05 10:23:12;;;;;;;25.20;10.23;;;;;;;;;;5018082;28;20124;-57
2023/12/05 10:25:37;;;;;;;21.60;10.13;;;;;;;;;;5021718;28;20045;-57
2023/12/05 10:28:05;;;;;;;20.98;9.48;;;;;;;;;;5022906;28;20021;-58
2023/12/05 10:30:32;;;;;;;21.27;9.95;;;;;;;;;;5016249;28;20030;-58
2023/12/05 10:33:08;;;;;;;22.67;11.60;;;;;;;;;;5028884;28;20033;-58
2023/12/05 10:35:33;;;;;;;21.42;10.18;;;;;;;;;;5019824;28;20441;-57
2023/12/05 10:38:03;;;;;;;19.02;9.85;;;;;;;;;;5029039;28;20018;-58
2023/12/05 10:40:28;;;;;;;23.58;13.98;;;;;;;;;;5027107;28;20021;-58
2023/12/05 10:42:53;;;;;;;21.35;9.35;;;;;;;;;;5021736;28;20037;-57
2023/12/05 10:45:18;;;;;;;20.60;9.40;;;;;;;;;;5024484;28;20576;-59
2023/12/05 10:47:44;;;;;;;18.67;8.97;;;;;;;;;;5025499;28;20017;-60
2023/12/05 10:50:09;;;;;;;19.92;9.98;;;;;;;;;;5028997;28;20022;-59
2023/12/05 10:52:35;;;;;;;20.88;9.60;;;;;;;;;;5028358;28;20362;-59
2023/12/05 10:55:00;;;;;;;17.15;8.73;;;;;;;;;;5029155;28;20071;-60
2023/12/05 10:57:33;;;;;;;18.75;8.68;;;;;;;;;;5029553;28;20037;-59
2023/12/05 10:59:58;;;;;;;19.17;9.13;;;;;;;;;;5027451;28;20041;-60
2023/12/05 11:02:24;;;;;;;19.03;9.17;;;;;;;;;;5028989;28;20021;-59
2023/12/05 11:04:49;;;;;;;20.98;9.35;;;;;;;;;;5022631;28;20026;-60
2023/12/05 11:07:15;;;;;;;19.17;9.18;;;;;;;;;;5028449;28;20037;-57
2023/12/05 11:09:43;;;;;;;20.40;9.60;;;;;;;;;;5025769;28;20025;-59
2023/12/05 11:12:08;;;;;;;19.63;8.70;;;;;;;;;;5029039;28;20037;-60
2023/12/05 11:14:36;;;;;;;20.52;9.75;;;;;;;;;;5025881;28;20018;-60
2023/12/05 11:17:03;;;;;;;19.48;9.00;;;;;;;;;;5028801;28;20029;-59
2023/12/05 11:19:38;;;;;;;18.60;9.30;;;;;;;;;;5020320;28;20108;-59
2023/12/05 11:22:18;;;;;;;21.10;9.65;;;;;;;;;;5028193;28;20413;-59
2023/12/05 11:25:02;;;;;;;22.30;10.23;;;;;;;;;;5019508;28;20029;-59
2023/12/05 11:27:35;;;;;;;21.90;9.07;;;;;;;;;;5028078;28;20057;-60
2023/12/05 11:30:19;;;;;;;22.77;11.23;;;;;;;;;;5022761;28;20028;-60
2023/12/05 11:32:57;;;;;;;19.02;9.45;;;;;;;;;;5015592;28;20490;-59
2023/12/05 11:35:37;;;;;;;19.05;8.73;;;;;;;;;;5026575;28;20382;-59
2023/12/05 11:38:06;;;;;;;20.85;9.32;;;;;;;;;;5020273;28;20405;-60
2023/12/05 11:40:31;;;;;;;18.55;8.73;;;;;;;;;;5019417;28;20033;-60
2023/12/05 11:43:03;;;;;;;20.90;9.68;;;;;;;;;;5015991;28;20025;-59
2023/12/05 11:45:29;;;;;;;19.88;9.25;;;;;;;;;;5021959;28;20124;-60
2023/12/05 11:47:57;;;;;;;21.38;10.20;;;;;;;;;;5016709;28;20041;-60
2023/12/05 11:50:22;;;;;;;20.00;10.05;;;;;;;;;;5027432;28;20045;-59
2023/12/05 11:52:49;;;;;;;20.50;10.10;;;;;;;;;;5020566;28;20385;-59
2023/12/05 11:55:14;;;;;;;20.60;10.43;;;;;;;;;;5015104;28;20029;-60
2023/12/05 11:57:40;;;;;;;21.58;10.20;;;;;;;;;;5025115;28;20389;-59
2023/12/05 12:00:06;;;;;;;22.13;10.18;;;;;;;;;;5016492;28;20108;-59
2023/12/05 12:02:31;;;;;;;22.98;10.57;;;;;;;;;;5017807;28;20120;-59
2023/12/05 12:05:00;;;;;;;20.45;9.95;;;;;;;;;;5019988;28;20056;-59
2023/12/05 12:07:25;;;;;;;20.92;9.85;;;;;;;;;;5027565;28;20025;-60
2023/12/05 12:09:51;;;;;;;23.23;10.73;;;;;;;;;;5022553;28;20126;-60
2023/12/05 12:12:16;;;;;;;23.07;10.63;;;;;;;;;;5028879;28;20030;-59
2023/12/05 12:14:42;;;;;;;22.67;10.68;;;;;;;;;;5024157;28;20025;-59
2023/12/05 12:17:07;;;;;;;20.90;10.18;;;;;;;;;;5020660;28;20025;-59
2023/12/05 12:19:36;;;;;;;23.33;10.70;;;;;;;;;;5022472;28;20025;-59
2023/12/05 12:22:05;;;;;;;22.00;9.93;;;;;;;;;;5019250;28;20464;-60
2023/12/05 12:24:33;;;;;;;22.88;10.43;;;;;;;;;;5021469;28;20091;-58
2023/12/05 12:26:58;;;;;;;;;;;;;;;;;;5018288;28;20022;-60
2023/12/05 12:29:24;;;;;;;23.97;10.63;;;;;;;;;;5024707;28;20391;-59
2023/12/05 12:31:52;;;;;;;24.45;10.98;;;;;;;;;;5030431;28;20068;-59
2023/12/05 12:34:25;;;;;;;23.17;10.52;;;;;;;;;;5024435;28;20101;-59
2023/12/05 12:36:51;;;;;;;22.92;10.68;;;;;;;;;;5015474;28;20028;-58
2023/12/05 12:39:16;;;;;;;23.17;10.95;;;;;;;;;;5018198;28;20037;-58
2023/12/05 12:41:42;;;;;;;23.08;10.75;;;;;;;;;;5022969;28;20550;-60
2023/12/05 12:44:08;;;;;;;24.27;10.57;;;;;;;;;;5027464;28;20231;-59
2023/12/05 12:46:34;;;;;;;23.15;10.57;;;;;;;;;;5027671;28;20095;-60
2023/12/05 12:49:02;;;;;;;25.10;11.70;;;;;;;;;;5027789;28;20065;-59
2023/12/05 12:51:27;;;;;;;23.83;10.65;;;;;;;;;;5018967;28;20032;-60
2023/12/05 12:53:52;;;;;;;25.10;11.53;;;;;;;;;;5022738;28;20073;-60
2023/12/05 12:56:17;;;;;;;23.60;11.00;;;;;;;;;;5020594;28;20397;-60
2023/12/05 12:58:44;;;;;;;24.77;11.70;;;;;;;;;;5021041;28;20034;-60
2023/12/05 13:01:13;;;;;;;27.73;16.42;;;;;;;;;;5016124;28;20026;-59
2023/12/05 13:03:42;;;;;;;27.42;12.23;;;;;;;;;;5023396;28;20032;-59
2023/12/05 13:06:07;;;;;;;27.48;12.73;;;;;;;;;;5024468;28;20062;-59
2023/12/05 13:08:32;;;;;;;26.40;12.67;;;;;;;;;;5017345;28;20449;-57
2023/12/05 13:10:57;;;;;;;28.80;12.15;;;;;;;;;;5013150;28;20017;-59
2023/12/05 13:13:23;;;;;;;27.55;12.15;;;;;;;;;;5021699;28;20033;-59
2023/12/05 13:15:48;;;;;;;27.38;13.38;;;;;;;;;;5028616;28;20030;-59
2023/12/05 13:18:13;;;;;;;28.42;12.27;;;;;;;;;;5024279;28;20022;-59
2023/12/05 13:20:52;;;;;;;26.27;12.23;;;;;;;;;;5020903;28;20013;-59
2023/12/05 13:23:19;;;;;;;30.10;12.88;;;;;;;;;;5020456;28;20030;-59
2023/12/05 13:25:45;;;;;;;30.10;12.95;;;;;;;;;;5014595;28;20079;-59
2023/12/05 13:28:10;;;;;;;25.10;11.77;;;;;;;;;;5021707;28;20021;-59
2023/12/05 13:30:35;;;;;;;27.80;12.43;;;;;;;;;;5021144;28;20079;-60
2023/12/05 13:33:01;;;;;;;25.10;12.33;;;;;;;;;;5025658;28;20021;-59
2023/12/05 13:35:26;;;;;;;27.60;12.75;;;;;;;;;;5026939;28;20497;-60
2023/12/05 13:37:52;;;;;;;27.85;12.40;;;;;;;;;;5018296;28;20025;-59
2023/12/05 13:40:17;;;;;;;27.80;12.40;;;;;;;;;;5023433;28;20042;-57
2023/12/05 13:42:42;;;;;;;29.03;13.17;;;;;;;;;;5020874;28;20053;-59
2023/12/05 13:45:07;;;;;;;30.27;13.30;;;;;;;;;;5015101;28;20096;-59
2023/12/05 13:47:33;;;;;;;30.80;13.98;;;;;;;;;;5030738;28;20048;-59
2023/12/05 13:49:58;;;;;;;32.23;13.77;;;;;;;;;;5031642;28;20096;-59
2023/12/05 13:52:23;;;;;;;29.37;13.03;;;;;;;;;;5031277;28;20420;-59
2023/12/05 13:54:48;;;;;;;32.53;13.87;;;;;;;;;;5023676;28;20066;-59
2023/12/05 13:57:13;;;;;;;32.83;13.60;;;;;;;;;;5023640;28;20444;-59
2023/12/05 13:59:39;;;;;;;31.30;13.70;;;;;;;;;;5029291;28;20413;-59
2023/12/05 14:02:04;;;;;;;29.83;12.35;;;;;;;;;;5018494;28;20041;-59
2023/12/05 14:04:30;;;;;;;31.52;13.45;;;;;;;;;;5024399;28;20067;-60
2023/12/05 14:06:55;;;;;;;29.25;13.00;;;;;;;;;;5022460;28;20045;-59
2023/12/05 14:09:20;;;;;;;29.20;12.43;;;;;;;;;;5025064;28;20049;-58
2023/12/05 14:11:46;;;;;;;28.83;13.88;;;;;;;;;;5021229;28;20033;-59
2023/12/05 14:14:12;;;;;;;31.52;13.55;;;;;;;;;;5025439;28;20101;-59
2023/12/05 14:16:38;;;;;;;29.35;12.13;;;;;;;;;;5027871;28;20028;-58
2023/12/05 14:19:03;;;;;;;28.63;12.50;;;;;;;;;;5018691;28;20112;-58